createdAt,value
2022-08-17T00:00:05.997Z,75.18
2022-08-17T00:00:55.634Z,75.30
2022-08-17T00:01:51.452Z,74.91
2022-08-17T00:03:15.402Z,75.05
2022-08-17T00:04:09.292Z,75.00
2022-08-17T00:04:58.654Z,75.13
2022-08-17T00:05:49.067Z,74.97
2022-08-17T00:06:37.014Z,75.08
2022-08-17T00:07:23.866Z,75.45
2022-08-17T00:08:12.328Z,75.64
2022-08-17T00:09:01.199Z,75.45
2022-08-17T00:09:48.084Z,75.23
2022-08-17T00:10:35.535Z,75.54
2022-08-17T00:11:29.295Z,75.73
2022-08-17T00:12:43.070Z,75.92
2022-08-17T00:13:30.355Z,76.02
2022-08-17T00:14:19.052Z,75.84
2022-08-17T00:15:10.359Z,76.13
2022-08-17T00:16:00.716Z,76.32
2022-08-17T00:16:56.759Z,76.02
2022-08-17T00:17:47.956Z,75.79
2022-08-17T00:19:01.196Z,75.95
2022-08-17T00:19:42.310Z,76.16
2022-08-17T00:20:30.401Z,76.60
2022-08-17T00:21:23.743Z,76.86
2022-08-17T00:22:31.938Z,76.61
2022-08-17T00:23:18.996Z,76.47
2022-08-17T00:24:05.978Z,76.33
2022-08-17T00:24:52.960Z,76.68
2022-08-17T00:25:45.867Z,76.67
2022-08-17T00:26:35.836Z,76.66
2022-08-17T00:27:31.689Z,76.41
2022-08-17T00:28:19.241Z,76.97
2022-08-17T00:29:08.846Z,77.20
2022-08-17T00:29:55.724Z,77.42
2022-08-17T00:30:53.149Z,77.50
2022-08-17T00:31:40.489Z,77.36
2022-08-17T00:33:15.648Z,77.36
2022-08-17T00:33:35.126Z,77.38
2022-08-17T00:34:22.150Z,77.21
2022-08-17T00:35:11.899Z,77.31
2022-08-17T00:35:59.826Z,77.45
2022-08-17T00:36:46.649Z,77.29
2022-08-17T00:37:33.455Z,77.43
2022-08-17T00:38:20.379Z,77.33
2022-08-17T00:39:07.185Z,77.38
2022-08-17T00:39:54.239Z,77.75
2022-08-17T00:41:04.560Z,77.84
2022-08-17T00:41:51.405Z,78.13
2022-08-17T00:42:39.083Z,77.88
2022-08-17T00:43:32.527Z,77.94
2022-08-17T00:44:19.795Z,78.07
2022-08-17T00:45:09.431Z,78.05
2022-08-17T00:45:57.235Z,78.22
2022-08-17T00:46:44.801Z,78.50
2022-08-17T00:47:31.739Z,78.37
2022-08-17T00:48:29.547Z,78.43
2022-08-17T00:49:19.787Z,78.48
2022-08-17T00:50:10.170Z,78.58
2022-08-17T00:51:16.622Z,78.72
2022-08-17T00:52:11.911Z,78.63
2022-08-17T00:52:59.155Z,78.61
2022-08-17T00:53:51.675Z,78.13
2022-08-17T00:54:41.816Z,78.06
2022-08-17T00:55:29.348Z,78.06
2022-08-17T00:56:23.043Z,78.22
2022-08-17T00:57:23.714Z,78.43
2022-08-17T00:58:10.329Z,78.65
2022-08-17T00:58:57.473Z,78.54
2022-08-17T00:59:55.978Z,78.34
2022-08-17T01:00:50.180Z,78.23
2022-08-17T01:01:37.897Z,78.13
2022-08-17T01:02:25.074Z,77.85
2022-08-17T01:03:14.555Z,77.78
2022-08-17T01:04:02.202Z,77.72
2022-08-17T01:04:51.477Z,77.70
2022-08-17T01:05:42.543Z,77.88
2022-08-17T01:06:30.034Z,77.88
2022-08-17T01:07:17.799Z,77.82
2022-08-17T01:08:07.045Z,77.77
2022-08-17T01:08:57.506Z,77.68
2022-08-17T01:09:44.857Z,77.68
2022-08-17T01:10:58.555Z,77.96
2022-08-17T01:11:48.537Z,78.06
2022-08-17T01:12:37.144Z,78.51
2022-08-17T01:13:25.521Z,78.72
2022-08-17T01:14:12.547Z,78.47
2022-08-17T01:14:59.435Z,78.40
2022-08-17T01:15:54.273Z,78.53
2022-08-17T01:16:41.114Z,78.84
2022-08-17T01:17:28.714Z,78.82
2022-08-17T01:18:16.835Z,78.89
2022-08-17T01:19:11.056Z,78.94
2022-08-17T01:19:58.064Z,78.93
2022-08-17T01:20:48.892Z,78.96
2022-08-17T01:21:51.646Z,79.12
2022-08-17T01:22:38.470Z,78.98
2022-08-17T01:23:26.365Z,79.26
2022-08-17T01:24:13.371Z,79.44
2022-08-17T01:25:02.461Z,79.44
2022-08-17T01:25:54.891Z,79.53
2022-08-17T01:26:44.970Z,79.31
2022-08-17T01:27:31.902Z,79.35
2022-08-17T01:28:53.009Z,79.33
2022-08-17T01:29:30.960Z,79.34
2022-08-17T01:30:56.881Z,79.39
2022-08-17T01:31:29.198Z,79.76
2022-08-17T01:32:16.590Z,79.81
2022-08-17T01:33:04.433Z,79.55
2022-08-17T01:33:51.364Z,79.61
2022-08-17T01:34:43.486Z,79.79
2022-08-17T01:35:36.960Z,80.05
2022-08-17T01:36:23.764Z,80.14
2022-08-17T01:37:12.309Z,79.95
2022-08-17T01:37:59.122Z,79.88
2022-08-17T01:38:45.961Z,79.77
2022-08-17T01:39:49.137Z,79.88
2022-08-17T01:40:39.352Z,80.11
2022-08-17T01:41:26.308Z,80.18
2022-08-17T01:42:21.867Z,80.25
2022-08-17T01:43:12.707Z,80.29
2022-08-17T01:44:02.845Z,80.11
2022-08-17T01:44:53.907Z,80.11
2022-08-17T01:45:43.636Z,80.25
2022-08-17T01:46:33.633Z,80.24
2022-08-17T01:47:20.513Z,80.20
2022-08-17T01:48:07.397Z,80.21
2022-08-17T01:48:56.507Z,80.13
2022-08-17T01:49:43.484Z,80.21
2022-08-17T01:50:35.097Z,80.46
2022-08-17T01:51:22.047Z,80.40
2022-08-17T01:52:10.755Z,80.27
2022-08-17T01:53:02.309Z,80.35
2022-08-17T01:53:52.536Z,80.50
2022-08-17T01:54:40.647Z,80.53
2022-08-17T01:55:33.209Z,80.31
2022-08-17T01:56:23.238Z,80.55
2022-08-17T01:57:10.916Z,80.75
2022-08-17T01:57:58.173Z,80.93
2022-08-17T01:58:46.445Z,81.08
2022-08-17T01:59:33.991Z,81.07
2022-08-17T02:00:21.217Z,81.05
2022-08-17T02:01:08.743Z,80.94
2022-08-17T02:01:55.790Z,81.01
2022-08-17T02:02:46.163Z,81.22
2022-08-17T02:03:34.756Z,81.36
2022-08-17T02:04:21.589Z,81.17
2022-08-17T02:05:08.876Z,81.33
2022-08-17T02:05:55.927Z,81.23
2022-08-17T02:06:53.299Z,81.00
2022-08-17T02:08:00.463Z,80.94
2022-08-17T02:09:02.824Z,81.36
2022-08-17T02:09:52.733Z,80.94
2022-08-17T02:10:39.738Z,81.17
2022-08-17T02:11:37.965Z,81.19
2022-08-17T02:12:37.205Z,81.24
2022-08-17T02:13:28.323Z,81.35
2022-08-17T02:14:15.281Z,80.97
2022-08-17T02:15:02.347Z,81.08
2022-08-17T02:15:49.233Z,81.02
2022-08-17T02:16:38.713Z,81.07
2022-08-17T02:17:25.475Z,81.35
2022-08-17T02:18:12.395Z,81.38
2022-08-17T02:18:59.954Z,81.23
2022-08-17T02:19:46.754Z,81.20
2022-08-17T02:20:41.823Z,81.26
2022-08-17T02:21:29.606Z,81.42
2022-08-17T02:22:18.417Z,81.19
2022-08-17T02:23:09.014Z,81.70
2022-08-17T02:23:56.400Z,81.77
2022-08-17T02:25:00.490Z,82.08
2022-08-17T02:25:49.030Z,81.94
2022-08-17T02:26:35.904Z,82.35
2022-08-17T02:27:22.786Z,82.32
2022-08-17T02:28:10.715Z,82.58
2022-08-17T02:28:57.492Z,82.59
2022-08-17T02:29:44.477Z,82.60
2022-08-17T02:31:00.363Z,83.27
2022-08-17T02:31:38.574Z,82.97
2022-08-17T02:32:27.984Z,82.71
2022-08-17T02:33:16.058Z,83.00
2022-08-17T02:34:04.944Z,83.06
2022-08-17T02:34:52.686Z,83.19
2022-08-17T02:35:39.800Z,82.92
2022-08-17T02:36:27.537Z,83.07
2022-08-17T02:37:17.452Z,83.16
2022-08-17T02:38:06.274Z,83.75
2022-08-17T02:38:53.044Z,83.83
2022-08-17T02:39:40.031Z,83.86
2022-08-17T02:40:28.601Z,83.68
2022-08-17T02:41:23.358Z,83.64
2022-08-17T02:42:10.238Z,83.48
2022-08-17T02:42:57.296Z,83.47
2022-08-17T02:43:46.508Z,83.71
2022-08-17T02:44:39.405Z,83.91
2022-08-17T02:45:27.415Z,84.12
2022-08-17T02:46:14.304Z,84.40
2022-08-17T02:47:01.433Z,84.30
2022-08-17T02:47:48.355Z,84.00
2022-08-17T02:48:35.190Z,83.84
2022-08-17T02:49:22.114Z,83.85
2022-08-17T02:50:10.570Z,83.85
2022-08-17T02:50:57.455Z,84.43
2022-08-17T02:51:44.286Z,84.72
2022-08-17T02:52:44.018Z,84.73
2022-08-17T02:53:35.650Z,84.65
2022-08-17T02:54:40.415Z,84.69
2022-08-17T02:55:32.906Z,84.39
2022-08-17T02:56:19.792Z,84.19
2022-08-17T02:57:06.575Z,84.05
2022-08-17T02:57:53.904Z,84.15
2022-08-17T02:58:40.798Z,84.09
2022-08-17T02:59:27.990Z,84.03
2022-08-17T03:00:25.318Z,84.25
2022-08-17T03:01:13.007Z,84.41
2022-08-17T03:01:59.925Z,84.25
2022-08-17T03:02:47.365Z,84.20
2022-08-17T03:03:35.363Z,84.33
2022-08-17T03:04:22.476Z,84.11
2022-08-17T03:05:11.376Z,84.22
2022-08-17T03:05:58.257Z,84.35
2022-08-17T03:06:45.147Z,84.52
2022-08-17T03:07:32.029Z,84.51
2022-08-17T03:08:19.898Z,84.68
2022-08-17T03:09:06.756Z,84.86
2022-08-17T03:09:54.174Z,85.03
2022-08-17T03:10:41.585Z,85.03
2022-08-17T03:11:28.381Z,84.86
2022-08-17T03:12:15.557Z,84.84
2022-08-17T03:13:02.488Z,85.22
2022-08-17T03:13:49.868Z,85.36
2022-08-17T03:14:42.146Z,85.97
2022-08-17T03:15:32.213Z,85.93
2022-08-17T03:16:19.015Z,85.84
2022-08-17T03:17:05.923Z,86.06
2022-08-17T03:17:54.049Z,86.23
2022-08-17T03:18:40.858Z,86.19
2022-08-17T03:19:28.069Z,86.41
2022-08-17T03:20:16.409Z,86.76
2022-08-17T03:21:04.664Z,86.70
2022-08-17T03:21:54.844Z,86.37
2022-08-17T03:22:48.050Z,86.30
2022-08-17T03:23:42.316Z,86.42
2022-08-17T03:24:29.433Z,86.10
2022-08-17T03:25:19.664Z,85.83
2022-08-17T03:26:12.331Z,85.53
2022-08-17T03:27:02.515Z,85.81
2022-08-17T03:27:49.626Z,85.68
2022-08-17T03:28:39.071Z,85.99
2022-08-17T03:29:25.867Z,86.37
2022-08-17T03:30:15.626Z,86.41
2022-08-17T03:31:03.183Z,86.50
2022-08-17T03:31:50.129Z,86.25
2022-08-17T03:32:46.637Z,86.45
2022-08-17T03:33:34.040Z,86.66
2022-08-17T03:34:21.056Z,87.03
2022-08-17T03:35:08.946Z,87.00
2022-08-17T03:35:56.153Z,87.43
2022-08-17T03:36:42.994Z,87.43
2022-08-17T03:37:29.798Z,87.34
2022-08-17T03:38:17.580Z,87.06
2022-08-17T03:39:05.057Z,86.44
2022-08-17T03:39:52.081Z,86.54
2022-08-17T03:40:57.338Z,86.79
2022-08-17T03:41:46.109Z,86.70
2022-08-17T03:42:33.028Z,86.77
2022-08-17T03:43:21.797Z,87.03
2022-08-17T03:44:08.684Z,87.01
2022-08-17T03:44:57.778Z,86.90
2022-08-17T03:46:03.166Z,86.75
2022-08-17T03:47:09.213Z,87.00
2022-08-17T03:48:14.681Z,86.80
2022-08-17T03:49:20.351Z,87.14
2022-08-17T03:50:40.588Z,86.93
2022-08-17T03:51:46.167Z,86.91
2022-08-17T03:52:51.889Z,87.50
2022-08-17T03:54:09.867Z,87.51
2022-08-17T03:55:15.635Z,87.30
2022-08-17T03:56:23.454Z,87.32
2022-08-17T03:57:11.477Z,87.27
2022-08-17T03:57:58.307Z,87.40
2022-08-17T03:58:45.690Z,86.89
2022-08-17T03:59:32.997Z,86.83
2022-08-17T04:00:19.974Z,86.79
2022-08-17T04:01:07.394Z,86.72
2022-08-17T04:01:56.157Z,86.89
2022-08-17T04:02:43.230Z,86.98
2022-08-17T04:03:30.107Z,86.86
2022-08-17T04:04:17.265Z,86.68
2022-08-17T04:05:04.366Z,86.32
2022-08-17T04:05:51.164Z,85.95
2022-08-17T04:06:38.298Z,85.84
2022-08-17T04:07:27.801Z,85.62
2022-08-17T04:08:14.549Z,85.81
2022-08-17T04:09:01.438Z,85.89
2022-08-17T04:09:48.427Z,85.87
2022-08-17T04:10:41.340Z,85.65
2022-08-17T04:11:32.914Z,85.75
2022-08-17T04:12:21.949Z,85.98
2022-08-17T04:13:10.195Z,85.82
2022-08-17T04:13:57.289Z,85.69
2022-08-17T04:14:52.776Z,85.84
2022-08-17T04:15:40.809Z,85.56
2022-08-17T04:16:27.636Z,84.91
2022-08-17T04:17:15.070Z,85.07
2022-08-17T04:18:02.402Z,85.27
2022-08-17T04:18:49.315Z,85.40
2022-08-17T04:19:36.218Z,85.15
2022-08-17T04:20:25.208Z,85.30
2022-08-17T04:21:11.986Z,85.72
2022-08-17T04:21:58.758Z,85.41
2022-08-17T04:23:05.043Z,85.17
2022-08-17T04:23:52.484Z,84.76
2022-08-17T04:24:39.317Z,84.28
2022-08-17T04:25:27.565Z,84.01
2022-08-17T04:26:52.475Z,83.99
2022-08-17T04:27:21.854Z,83.94
2022-08-17T04:28:09.452Z,83.78
2022-08-17T04:29:03.337Z,83.52
2022-08-17T04:29:55.591Z,83.64
2022-08-17T04:30:45.370Z,83.64
2022-08-17T04:31:33.451Z,83.33
2022-08-17T04:32:58.528Z,83.30
2022-08-17T04:33:28.654Z,83.69
2022-08-17T04:34:19.717Z,83.70
2022-08-17T04:35:07.129Z,83.74
2022-08-17T04:35:56.942Z,83.29
2022-08-17T04:36:47.999Z,83.19
2022-08-17T04:37:37.296Z,82.91
2022-08-17T04:38:29.490Z,82.64
2022-08-17T04:39:16.240Z,82.43
2022-08-17T04:40:22.655Z,82.13
2022-08-17T04:41:33.367Z,80.87
2022-08-17T04:42:20.275Z,81.15
2022-08-17T04:43:12.995Z,80.19
2022-08-17T04:44:01.010Z,79.98
2022-08-17T04:44:48.060Z,79.79
2022-08-17T04:45:55.058Z,79.04
2022-08-17T04:46:42.861Z,77.50
2022-08-17T04:47:29.735Z,76.73
2022-08-17T04:48:16.759Z,76.75
2022-08-17T04:49:09.498Z,76.65
2022-08-17T04:49:56.250Z,76.44
2022-08-17T04:50:45.671Z,76.10
2022-08-17T04:51:35.944Z,76.06
2022-08-17T04:52:32.263Z,76.04
2022-08-17T04:53:29.649Z,75.95
2022-08-17T04:54:22.069Z,75.34
2022-08-17T04:55:09.192Z,75.09
2022-08-17T04:55:58.508Z,74.89
2022-08-17T04:56:45.803Z,74.54
2022-08-17T04:57:37.678Z,74.16
2022-08-17T04:58:27.758Z,74.36
2022-08-17T04:59:17.930Z,73.50
2022-08-17T05:00:05.973Z,73.32
2022-08-17T05:00:52.978Z,73.10
2022-08-17T05:01:41.256Z,72.92
2022-08-17T05:02:28.200Z,72.72
2022-08-17T05:03:15.103Z,72.66
2022-08-17T05:04:32.165Z,72.52
2022-08-17T05:05:12.829Z,72.16
2022-08-17T05:05:59.811Z,71.42
2022-08-17T05:06:47.241Z,71.53
2022-08-17T05:07:34.137Z,71.36
2022-08-17T05:08:21.869Z,71.21
2022-08-17T05:09:08.750Z,71.23
2022-08-17T05:09:55.478Z,71.01
2022-08-17T05:10:45.175Z,70.84
2022-08-17T05:11:32.435Z,70.53
2022-08-17T05:12:19.228Z,70.14
2022-08-17T05:13:09.343Z,69.98
2022-08-17T05:13:57.081Z,69.73
2022-08-17T05:14:43.833Z,69.60
2022-08-17T05:15:33.217Z,69.01
2022-08-17T05:16:24.187Z,68.27
2022-08-17T05:17:11.145Z,67.48
2022-08-17T05:17:58.205Z,66.92
2022-08-17T05:18:45.159Z,66.35
2022-08-17T05:19:32.143Z,66.26
2022-08-17T05:20:18.866Z,66.18
2022-08-17T05:21:06.972Z,65.86
2022-08-17T05:21:54.037Z,65.48
2022-08-17T05:22:52.108Z,65.40
2022-08-17T05:23:43.124Z,65.48
2022-08-17T05:24:42.728Z,65.65
2022-08-17T05:25:46.776Z,65.67
2022-08-17T05:26:36.450Z,64.91
2022-08-17T05:27:24.626Z,63.37
2022-08-17T05:28:18.035Z,62.95
2022-08-17T05:29:05.441Z,62.65
2022-08-17T05:29:52.384Z,62.35
2022-08-17T05:30:40.316Z,61.63
2022-08-17T05:31:28.322Z,61.01
2022-08-17T05:32:47.896Z,61.14
2022-08-17T05:33:25.089Z,61.21
2022-08-17T05:34:11.876Z,60.81
2022-08-17T05:35:00.521Z,61.14
2022-08-17T05:35:49.441Z,61.28
2022-08-17T05:36:44.060Z,61.00
2022-08-17T05:37:31.283Z,60.78
2022-08-17T05:38:20.289Z,61.24
2022-08-17T05:39:07.084Z,61.23
2022-08-17T05:39:54.366Z,61.68
2022-08-17T05:40:42.568Z,61.91
2022-08-17T05:41:29.371Z,62.14
2022-08-17T05:42:19.557Z,62.41
2022-08-17T05:43:09.530Z,62.37
2022-08-17T05:43:56.755Z,62.24
2022-08-17T05:44:43.732Z,62.50
2022-08-17T05:45:39.866Z,62.48
2022-08-17T05:46:40.647Z,62.41
2022-08-17T05:47:27.897Z,62.42
2022-08-17T05:48:15.661Z,62.39
2022-08-17T05:49:05.788Z,62.14
2022-08-17T05:49:53.961Z,62.46
2022-08-17T05:50:56.763Z,62.47
2022-08-17T05:52:10.919Z,62.50
2022-08-17T05:53:13.949Z,62.32
2022-08-17T05:54:13.808Z,62.36
2022-08-17T05:55:45.340Z,61.34
2022-08-17T05:57:07.777Z,61.42
2022-08-17T05:58:06.005Z,60.91
2022-08-17T05:59:08.809Z,59.15
2022-08-17T06:00:13.926Z,59.37
2022-08-17T06:01:12.883Z,58.47
2022-08-17T06:02:12.158Z,56.86
2022-08-17T06:03:17.154Z,54.90
2022-08-17T06:04:35.132Z,54.31
2022-08-17T06:05:34.109Z,54.40
2022-08-17T06:06:31.128Z,54.08
2022-08-17T06:07:34.676Z,54.41
2022-08-17T06:08:48.834Z,54.52
2022-08-17T06:09:58.173Z,53.63
2022-08-17T06:11:14.172Z,53.28
2022-08-17T06:12:19.067Z,53.22
2022-08-17T06:13:19.161Z,52.82
2022-08-17T06:14:17.388Z,52.93
2022-08-17T06:15:25.117Z,52.97
2022-08-17T06:16:33.359Z,52.80
2022-08-17T06:17:22.810Z,52.71
2022-08-17T06:18:12.836Z,52.08
2022-08-17T06:19:12.295Z,52.31
2022-08-17T06:20:26.329Z,51.03
2022-08-17T06:21:16.116Z,50.96
2022-08-17T06:22:05.883Z,50.92
2022-08-17T06:22:58.457Z,51.23
2022-08-17T06:23:54.910Z,50.96
2022-08-17T06:24:57.134Z,50.80
2022-08-17T06:25:49.904Z,50.73
2022-08-17T06:26:43.158Z,50.50
2022-08-17T06:27:37.235Z,50.38
2022-08-17T06:28:34.810Z,50.13
2022-08-17T06:29:30.766Z,50.21
2022-08-17T06:30:26.989Z,49.90
2022-08-17T06:31:29.634Z,49.92
2022-08-17T06:32:17.373Z,49.74
2022-08-17T06:33:07.933Z,49.58
2022-08-17T06:33:56.995Z,49.64
2022-08-17T06:34:44.286Z,49.52
2022-08-17T06:35:46.323Z,48.86
2022-08-17T06:36:48.766Z,47.98
2022-08-17T06:37:49.750Z,47.81
2022-08-17T06:38:50.299Z,47.82
2022-08-17T06:39:46.014Z,47.70
2022-08-17T06:40:35.884Z,47.69
2022-08-17T06:41:28.995Z,48.15
2022-08-17T06:43:02.090Z,48.16
2022-08-17T06:44:49.812Z,47.85
2022-08-17T06:45:31.421Z,47.52
2022-08-17T06:46:21.493Z,47.60
2022-08-17T06:47:28.949Z,47.46
2022-08-17T06:48:25.364Z,47.44
2022-08-17T06:49:19.958Z,48.04
2022-08-17T06:50:19.188Z,48.00
2022-08-17T06:51:23.169Z,48.32
2022-08-17T06:52:12.848Z,48.37
2022-08-17T06:53:53.876Z,48.34
2022-08-17T06:54:45.886Z,48.14
2022-08-17T06:55:55.827Z,48.35
2022-08-17T06:56:55.268Z,48.37
2022-08-17T06:57:47.967Z,48.38
2022-08-17T06:58:36.107Z,48.08
2022-08-17T06:59:36.379Z,47.75
2022-08-17T07:00:43.225Z,47.71
2022-08-17T07:01:33.216Z,48.10
2022-08-17T07:02:53.064Z,47.36
2022-08-17T07:04:12.264Z,47.01
2022-08-17T07:05:01.980Z,47.00
2022-08-17T07:05:52.303Z,47.42
2022-08-17T07:07:00.661Z,47.12
2022-08-17T07:08:02.881Z,46.92
2022-08-17T07:08:59.318Z,47.07
2022-08-17T07:09:47.153Z,46.83
2022-08-17T07:10:41.856Z,46.78
2022-08-17T07:11:39.281Z,46.46
2022-08-17T07:12:29.754Z,46.17
2022-08-17T07:13:20.071Z,46.20
2022-08-17T07:14:30.916Z,45.79
2022-08-17T07:15:25.453Z,45.60
2022-08-17T07:16:38.944Z,45.68
2022-08-17T07:17:46.692Z,45.64
2022-08-17T07:18:33.713Z,45.84
2022-08-17T07:19:24.518Z,45.19
2022-08-17T07:20:15.627Z,44.95
2022-08-17T07:21:12.956Z,44.75
2022-08-17T07:22:28.160Z,44.46
2022-08-17T07:23:50.494Z,44.84
2022-08-17T07:24:53.179Z,44.80
2022-08-17T07:25:40.335Z,44.36
2022-08-17T07:26:27.854Z,44.21
2022-08-17T07:27:43.136Z,43.89
2022-08-17T07:28:30.571Z,43.91
2022-08-17T07:29:19.835Z,43.92
2022-08-17T07:30:19.580Z,43.99
2022-08-17T07:31:07.236Z,43.88
2022-08-17T07:31:54.543Z,44.09
2022-08-17T07:32:46.839Z,44.49
2022-08-17T07:33:34.814Z,44.42
2022-08-17T07:34:21.737Z,44.07
2022-08-17T07:35:16.399Z,44.19
2022-08-17T07:36:03.522Z,44.47
2022-08-17T07:37:04.341Z,44.38
2022-08-17T07:38:07.357Z,44.19
2022-08-17T07:39:12.860Z,44.40
2022-08-17T07:40:16.264Z,44.29
2022-08-17T07:41:07.476Z,44.10
2022-08-17T07:42:02.397Z,43.56
2022-08-17T07:43:01.469Z,43.79
2022-08-17T07:43:53.058Z,44.05
2022-08-17T07:44:53.006Z,43.92
2022-08-17T07:46:10.307Z,43.54
2022-08-17T07:47:15.868Z,44.04
2022-08-17T07:48:21.001Z,44.07
2022-08-17T07:49:10.588Z,44.29
2022-08-17T07:49:57.526Z,44.24
2022-08-17T07:50:49.382Z,44.36
2022-08-17T07:51:53.970Z,43.93
2022-08-17T07:52:50.552Z,43.53
2022-08-17T07:53:39.169Z,43.68
2022-08-17T07:54:35.993Z,43.81
2022-08-17T07:55:31.729Z,43.79
2022-08-17T07:56:38.028Z,43.91
2022-08-17T07:57:32.590Z,43.31
2022-08-17T07:58:23.570Z,43.66
2022-08-17T07:59:18.282Z,43.80
2022-08-17T08:00:19.586Z,43.76
2022-08-17T08:01:18.557Z,43.29
2022-08-17T08:02:16.244Z,44.11
2022-08-17T08:03:14.874Z,43.53
2022-08-17T08:04:03.636Z,43.56
2022-08-17T08:05:06.696Z,43.52
2022-08-17T08:06:03.151Z,43.53
2022-08-17T08:06:55.154Z,43.67
2022-08-17T08:07:57.075Z,43.68
2022-08-17T08:08:49.078Z,43.53
2022-08-17T08:09:44.783Z,43.47
2022-08-17T08:10:38.781Z,43.92
2022-08-17T08:11:34.373Z,43.97
2022-08-17T08:12:37.368Z,43.63
2022-08-17T08:13:28.932Z,43.17
2022-08-17T08:14:34.173Z,42.99
2022-08-17T08:15:25.798Z,42.94
2022-08-17T08:16:21.505Z,42.87
2022-08-17T08:17:09.245Z,43.00
2022-08-17T08:17:59.502Z,42.58
2022-08-17T08:18:55.770Z,42.96
2022-08-17T08:19:43.508Z,42.70
2022-08-17T08:20:52.595Z,42.93
2022-08-17T08:21:52.354Z,43.18
2022-08-17T08:23:02.669Z,42.57
2022-08-17T08:23:58.839Z,42.60
2022-08-17T08:25:14.517Z,42.39
2022-08-17T08:26:32.158Z,42.56
2022-08-17T08:27:22.304Z,42.36
2022-08-17T08:28:20.748Z,42.13
2022-08-17T08:29:36.577Z,42.08
2022-08-17T08:30:23.677Z,42.51
2022-08-17T08:31:30.751Z,42.15
2022-08-17T08:32:32.376Z,42.42
2022-08-17T08:33:29.077Z,42.04
2022-08-17T08:34:44.539Z,42.02
2022-08-17T08:35:53.746Z,42.15
2022-08-17T08:37:15.992Z,41.86
2022-08-17T08:38:24.138Z,42.54
2022-08-17T08:39:24.817Z,42.44
2022-08-17T08:40:17.366Z,42.41
2022-08-17T08:41:26.473Z,41.92
2022-08-17T08:42:46.002Z,41.94
2022-08-17T08:44:03.991Z,41.56
2022-08-17T08:45:16.268Z,41.06
2022-08-17T08:46:35.672Z,41.28
2022-08-17T08:47:45.533Z,40.86
2022-08-17T08:48:56.550Z,40.38
2022-08-17T08:50:06.958Z,39.87
2022-08-17T08:51:14.479Z,40.62
2022-08-17T08:52:03.716Z,40.63
2022-08-17T08:53:02.376Z,40.87
2022-08-17T08:54:02.551Z,40.42
2022-08-17T08:55:05.506Z,40.07
2022-08-17T08:55:56.465Z,40.22
2022-08-17T08:57:21.530Z,40.57
2022-08-17T08:58:06.462Z,39.66
2022-08-17T08:59:12.087Z,40.54
2022-08-17T09:00:05.050Z,40.05
2022-08-17T09:00:56.046Z,39.88
2022-08-17T09:02:07.630Z,40.00
2022-08-17T09:03:00.388Z,39.49
2022-08-17T09:04:27.670Z,40.43
2022-08-17T09:05:33.314Z,39.83
2022-08-17T09:06:39.910Z,39.80
2022-08-17T09:07:34.925Z,39.37
2022-08-17T09:08:38.883Z,39.04
2022-08-17T09:09:31.570Z,38.70
2022-08-17T09:10:44.568Z,39.02
2022-08-17T09:12:08.190Z,38.95
2022-08-17T09:12:57.970Z,38.92
2022-08-17T09:14:06.349Z,38.39
2022-08-17T09:15:14.159Z,38.39
2022-08-17T09:16:33.370Z,38.57
2022-08-17T09:17:37.237Z,38.77
2022-08-17T09:19:03.606Z,38.39
2022-08-17T09:19:39.664Z,37.85
2022-08-17T09:20:55.520Z,37.85
2022-08-17T09:21:55.630Z,37.84
2022-08-17T09:22:45.919Z,37.34
2022-08-17T09:23:51.653Z,36.86
2022-08-17T09:24:50.231Z,36.63
2022-08-17T09:26:04.141Z,37.31
2022-08-17T09:26:57.358Z,37.31
2022-08-17T09:27:53.313Z,37.43
2022-08-17T09:28:42.839Z,36.25
2022-08-17T09:29:35.364Z,35.84
2022-08-17T09:30:23.721Z,36.14
2022-08-17T09:31:17.252Z,36.53
2022-08-17T09:32:16.874Z,36.46
2022-08-17T09:33:07.959Z,36.28
2022-08-17T09:33:58.859Z,35.97
2022-08-17T09:34:53.750Z,36.10
2022-08-17T09:35:51.685Z,36.37
2022-08-17T09:36:59.583Z,36.47
2022-08-17T09:38:08.357Z,36.80
2022-08-17T09:39:08.296Z,35.68
2022-08-17T09:40:04.775Z,35.69
2022-08-17T09:41:19.378Z,35.28
2022-08-17T09:42:23.013Z,35.77
2022-08-17T09:43:37.371Z,36.14
2022-08-17T09:44:31.472Z,35.66
2022-08-17T09:45:35.557Z,35.16
2022-08-17T09:46:26.037Z,35.66
2022-08-17T09:47:18.654Z,35.59
2022-08-17T09:48:18.343Z,35.63
2022-08-17T09:49:15.292Z,35.65
2022-08-17T09:50:08.794Z,34.42
2022-08-17T09:51:06.476Z,33.43
2022-08-17T09:52:00.915Z,33.40
2022-08-17T09:52:48.834Z,33.88
2022-08-17T09:53:37.435Z,33.80
2022-08-17T09:54:45.074Z,33.65
2022-08-17T09:55:50.588Z,33.97
2022-08-17T09:56:40.013Z,33.87
2022-08-17T09:57:32.587Z,34.39
2022-08-17T09:58:34.915Z,33.98
2022-08-17T09:59:47.928Z,34.14
2022-08-17T10:00:36.398Z,34.76
2022-08-17T10:01:47.841Z,34.78
2022-08-17T10:02:55.054Z,34.11
2022-08-17T10:04:06.960Z,32.41
2022-08-17T10:05:05.726Z,32.36
2022-08-17T10:06:11.568Z,32.36
2022-08-17T10:07:07.908Z,32.60
2022-08-17T10:08:02.678Z,32.76
2022-08-17T10:09:19.243Z,32.66
2022-08-17T10:10:14.990Z,32.70
2022-08-17T10:11:06.060Z,33.61
2022-08-17T10:12:55.315Z,33.42
2022-08-17T10:14:35.932Z,33.73
2022-08-17T10:15:22.795Z,32.79
2022-08-17T10:16:34.359Z,32.83
2022-08-17T10:17:41.241Z,31.45
2022-08-17T10:18:50.952Z,32.10
2022-08-17T10:19:56.464Z,31.74
2022-08-17T10:21:21.349Z,31.47
2022-08-17T10:22:39.054Z,31.00
2022-08-17T10:23:48.047Z,31.10
2022-08-17T10:25:20.693Z,31.38
2022-08-17T10:26:14.028Z,30.97
2022-08-17T10:27:02.434Z,30.48
2022-08-17T10:27:54.519Z,30.53
2022-08-17T10:28:54.201Z,31.11
2022-08-17T10:29:48.802Z,32.04
2022-08-17T10:30:46.407Z,31.57
2022-08-17T10:31:55.102Z,31.87
2022-08-17T10:32:48.033Z,31.79
2022-08-17T10:34:00.467Z,31.57
2022-08-17T10:35:04.478Z,32.00
2022-08-17T10:36:12.555Z,31.99
2022-08-17T10:37:20.924Z,31.76
2022-08-17T10:38:28.996Z,32.25
2022-08-17T10:39:24.830Z,31.96
2022-08-17T10:40:22.467Z,32.06
2022-08-17T10:41:40.523Z,32.23
2022-08-17T10:42:36.441Z,31.32
2022-08-17T10:44:36.691Z,30.43
2022-08-17T10:45:07.502Z,29.97
2022-08-17T10:46:10.643Z,30.57
2022-08-17T10:47:11.526Z,30.63
2022-08-17T10:48:05.661Z,30.88
2022-08-17T10:49:15.368Z,30.07
2022-08-17T10:50:40.491Z,30.02
2022-08-17T10:51:38.835Z,29.74
2022-08-17T10:52:28.507Z,29.49
2022-08-17T10:53:35.641Z,30.25
2022-08-17T10:54:25.010Z,30.13
2022-08-17T10:55:18.036Z,30.19
2022-08-17T10:56:14.724Z,29.95
2022-08-17T10:57:01.602Z,30.88
2022-08-17T10:57:50.386Z,30.17
2022-08-17T10:58:58.437Z,30.00
2022-08-17T10:59:47.396Z,30.07
2022-08-17T11:00:40.219Z,30.37
2022-08-17T11:01:34.073Z,30.58
2022-08-17T11:02:31.647Z,29.66
2022-08-17T11:03:24.924Z,29.31
2022-08-17T11:04:32.992Z,29.91
2022-08-17T11:05:33.744Z,29.73
2022-08-17T11:06:52.352Z,30.08
2022-08-17T11:07:58.755Z,30.07
2022-08-17T11:08:57.660Z,29.93
2022-08-17T11:10:14.610Z,30.01
2022-08-17T11:11:12.417Z,30.29
2022-08-17T11:12:25.802Z,30.79
2022-08-17T11:13:23.321Z,30.60
2022-08-17T11:14:40.142Z,30.74
2022-08-17T11:15:42.164Z,30.31
2022-08-17T11:16:45.797Z,30.17
2022-08-17T11:17:39.116Z,30.34
2022-08-17T11:19:07.229Z,30.45
2022-08-17T11:19:59.844Z,30.66
2022-08-17T11:21:03.804Z,30.36
2022-08-17T11:22:09.375Z,30.23
2022-08-17T11:23:16.013Z,30.27
2022-08-17T11:24:17.047Z,30.51
2022-08-17T11:25:19.234Z,29.84
2022-08-17T11:26:26.199Z,30.21
2022-08-17T11:27:22.464Z,29.76
2022-08-17T11:28:34.626Z,30.34
2022-08-17T11:29:25.796Z,29.74
2022-08-17T11:30:43.556Z,29.46
2022-08-17T11:31:59.537Z,29.96
2022-08-17T11:32:54.554Z,29.33
2022-08-17T11:33:41.884Z,29.68
2022-08-17T11:34:31.189Z,30.08
2022-08-17T11:35:20.827Z,30.05
2022-08-17T11:36:23.708Z,29.63
2022-08-17T11:37:55.612Z,29.56
2022-08-17T11:39:06.787Z,29.76
2022-08-17T11:40:04.952Z,30.03
2022-08-17T11:41:19.716Z,30.03
2022-08-17T11:42:49.351Z,29.74
2022-08-17T11:43:49.674Z,30.15
2022-08-17T11:44:46.226Z,30.32
2022-08-17T11:45:39.395Z,29.01
2022-08-17T11:47:07.213Z,29.00
2022-08-17T11:48:33.161Z,29.55
2022-08-17T11:50:05.401Z,30.07
2022-08-17T11:51:46.979Z,30.01
2022-08-17T11:52:40.724Z,29.66
2022-08-17T11:53:37.355Z,29.97
2022-08-17T11:54:33.382Z,29.77
2022-08-17T11:55:36.575Z,28.90
2022-08-17T11:56:49.910Z,29.18
2022-08-17T11:57:42.895Z,28.67
2022-08-17T11:58:29.617Z,28.80